sensor_id;sensor_type;location;lat;lon;timestamp;temperature;humidity
8132;DHT22;4107;49.212;9.198;2022-09-03T00:02:33;18.20;75.50
8132;DHT22;4107;49.212;9.198;2022-09-03T00:05:03;18.10;75.40
8132;DHT22;4107;49.212;9.198;2022-09-03T00:10:08;18.00;75.50
8132;DHT22;4107;49.212;9.198;2022-09-03T00:12:39;18.00;75.90
8132;DHT22;4107;49.212;9.198;2022-09-03T00:15:11;18.00;76.10
8132;DHT22;4107;49.212;9.198;2022-09-03T00:17:54;18.00;76.70
8132;DHT22;4107;49.212;9.198;2022-09-03T00:20:30;18.00;75.90
8132;DHT22;4107;49.212;9.198;2022-09-03T00:22:59;18.00;76.00
8132;DHT22;4107;49.212;9.198;2022-09-03T00:25:55;18.00;75.80
8132;DHT22;4107;49.212;9.198;2022-09-03T00:28:26;18.00;76.00
8132;DHT22;4107;49.212;9.198;2022-09-03T00:33:32;18.00;76.40
8132;DHT22;4107;49.212;9.198;2022-09-03T00:36:09;18.00;76.00
8132;DHT22;4107;49.212;9.198;2022-09-03T00:38:37;18.00;76.10
8132;DHT22;4107;49.212;9.198;2022-09-03T00:41:29;18.00;76.20
8132;DHT22;4107;49.212;9.198;2022-09-03T00:46:35;18.00;76.00
8132;DHT22;4107;49.212;9.198;2022-09-03T01:00:16;18.00;76.20
8132;DHT22;4107;49.212;9.198;2022-09-03T01:02:55;18.00;76.90
8132;DHT22;4107;49.212;9.198;2022-09-03T01:08:09;18.00;76.80
8132;DHT22;4107;49.212;9.198;2022-09-03T01:13:38;18.00;76.90
8132;DHT22;4107;49.212;9.198;2022-09-03T01:16:23;18.00;77.50
8132;DHT22;4107;49.212;9.198;2022-09-03T01:27:14;17.90;77.60
8132;DHT22;4107;49.212;9.198;2022-09-03T01:32:21;17.80;77.70
8132;DHT22;4107;49.212;9.198;2022-09-03T01:43:21;17.90;78.00
8132;DHT22;4107;49.212;9.198;2022-09-03T01:45:53;17.80;78.00
8132;DHT22;4107;49.212;9.198;2022-09-03T01:53:54;17.90;78.40
8132;DHT22;4107;49.212;9.198;2022-09-03T01:59:45;17.80;78.40
8132;DHT22;4107;49.212;9.198;2022-09-03T02:02:24;17.80;78.90
8132;DHT22;4107;49.212;9.198;2022-09-03T02:05:00;17.70;78.90
8132;DHT22;4107;49.212;9.198;2022-09-03T02:07:32;17.80;79.50
8132;DHT22;4107;49.212;9.198;2022-09-03T02:10:00;17.80;79.30
8132;DHT22;4107;49.212;9.198;2022-09-03T02:12:29;17.80;79.30
8132;DHT22;4107;49.212;9.198;2022-09-03T02:14:59;17.80;79.40
8132;DHT22;4107;49.212;9.198;2022-09-03T02:17:27;17.90;79.20
8132;DHT22;4107;49.212;9.198;2022-09-03T02:19:53;17.90;80.00
8132;DHT22;4107;49.212;9.198;2022-09-03T02:22:19;17.90;79.70
8132;DHT22;4107;49.212;9.198;2022-09-03T02:24:44;17.90;79.70
8132;DHT22;4107;49.212;9.198;2022-09-03T02:27:10;18.00;79.40
8132;DHT22;4107;49.212;9.198;2022-09-03T02:29:36;17.90;79.20
8132;DHT22;4107;49.212;9.198;2022-09-03T02:32:02;17.90;79.10
8132;DHT22;4107;49.212;9.198;2022-09-03T02:34:28;17.90;79.50
8132;DHT22;4107;49.212;9.198;2022-09-03T02:36:54;17.90;79.70
8132;DHT22;4107;49.212;9.198;2022-09-03T02:39:20;17.90;79.80
8132;DHT22;4107;49.212;9.198;2022-09-03T02:41:53;17.80;80.10
8132;DHT22;4107;49.212;9.198;2022-09-03T02:44:28;17.90;80.20
8132;DHT22;4107;49.212;9.198;2022-09-03T02:46:58;17.80;80.10
8132;DHT22;4107;49.212;9.198;2022-09-03T02:49:24;17.80;81.10
8132;DHT22;4107;49.212;9.198;2022-09-03T02:51:56;17.80;80.60
8132;DHT22;4107;49.212;9.198;2022-09-03T02:54:22;17.80;80.70
8132;DHT22;4107;49.212;9.198;2022-09-03T02:56:47;17.80;80.80
8132;DHT22;4107;49.212;9.198;2022-09-03T02:59:14;17.80;80.80
8132;DHT22;4107;49.212;9.198;2022-09-03T03:01:39;17.80;81.10
8132;DHT22;4107;49.212;9.198;2022-09-03T03:04:05;17.80;81.10
8132;DHT22;4107;49.212;9.198;2022-09-03T03:06:30;17.80;81.50
8132;DHT22;4107;49.212;9.198;2022-09-03T03:08:57;17.80;81.30
8132;DHT22;4107;49.212;9.198;2022-09-03T03:11:23;17.80;81.40
8132;DHT22;4107;49.212;9.198;2022-09-03T03:13:49;17.80;81.60
8132;DHT22;4107;49.212;9.198;2022-09-03T03:16:15;17.90;82.30
8132;DHT22;4107;49.212;9.198;2022-09-03T03:18:42;17.90;82.00
8132;DHT22;4107;49.212;9.198;2022-09-03T03:21:12;17.90;82.30
8132;DHT22;4107;49.212;9.198;2022-09-03T03:23:39;17.90;82.10
8132;DHT22;4107;49.212;9.198;2022-09-03T03:26:07;18.00;82.30
8132;DHT22;4107;49.212;9.198;2022-09-03T03:28:34;17.90;82.00
8132;DHT22;4107;49.212;9.198;2022-09-03T03:31:11;17.90;82.20
8132;DHT22;4107;49.212;9.198;2022-09-03T03:33:38;17.90;82.00
8132;DHT22;4107;49.212;9.198;2022-09-03T03:36:13;17.90;82.60
8132;DHT22;4107;49.212;9.198;2022-09-03T03:38:40;17.90;82.50
8132;DHT22;4107;49.212;9.198;2022-09-03T03:43:35;17.90;82.60
8132;DHT22;4107;49.212;9.198;2022-09-03T03:46:01;17.90;82.40
8132;DHT22;4107;49.212;9.198;2022-09-03T03:48:26;17.90;82.40
8132;DHT22;4107;49.212;9.198;2022-09-03T03:50:52;17.90;82.90
8132;DHT22;4107;49.212;9.198;2022-09-03T03:53:18;17.90;83.10
8132;DHT22;4107;49.212;9.198;2022-09-03T03:55:55;17.90;83.50
8132;DHT22;4107;49.212;9.198;2022-09-03T03:58:21;17.90;84.10
8132;DHT22;4107;49.212;9.198;2022-09-03T04:00:47;18.00;83.40
8132;DHT22;4107;49.212;9.198;2022-09-03T04:03:13;18.00;83.70
8132;DHT22;4107;49.212;9.198;2022-09-03T04:05:39;18.00;83.60
8132;DHT22;4107;49.212;9.198;2022-09-03T04:08:04;18.00;83.40
8132;DHT22;4107;49.212;9.198;2022-09-03T04:10:31;18.00;83.90
8132;DHT22;4107;49.212;9.198;2022-09-03T04:12:56;17.90;83.60
8132;DHT22;4107;49.212;9.198;2022-09-03T04:15:22;17.90;84.00
8132;DHT22;4107;49.212;9.198;2022-09-03T04:17:48;18.00;84.60
8132;DHT22;4107;49.212;9.198;2022-09-03T04:20:13;18.00;84.70
8132;DHT22;4107;49.212;9.198;2022-09-03T04:22:39;17.90;84.30
8132;DHT22;4107;49.212;9.198;2022-09-03T04:25:04;17.80;84.20
8132;DHT22;4107;49.212;9.198;2022-09-03T04:27:30;17.80;84.50
8132;DHT22;4107;49.212;9.198;2022-09-03T04:29:56;17.80;84.70
8132;DHT22;4107;49.212;9.198;2022-09-03T04:32:21;17.80;85.00
8132;DHT22;4107;49.212;9.198;2022-09-03T04:35:06;17.80;85.20
8132;DHT22;4107;49.212;9.198;2022-09-03T04:37:32;17.90;85.40
8132;DHT22;4107;49.212;9.198;2022-09-03T04:39:57;17.90;86.20
8132;DHT22;4107;49.212;9.198;2022-09-03T04:42:23;17.90;85.80
8132;DHT22;4107;49.212;9.198;2022-09-03T04:44:49;17.80;85.90
8132;DHT22;4107;49.212;9.198;2022-09-03T04:47:14;17.80;85.90
8132;DHT22;4107;49.212;9.198;2022-09-03T04:49:40;17.80;86.10
8132;DHT22;4107;49.212;9.198;2022-09-03T04:52:06;17.90;86.50
8132;DHT22;4107;49.212;9.198;2022-09-03T04:54:31;17.90;86.40
8132;DHT22;4107;49.212;9.198;2022-09-03T04:56:57;17.80;86.60
8132;DHT22;4107;49.212;9.198;2022-09-03T04:59:23;17.80;86.50
8132;DHT22;4107;49.212;9.198;2022-09-03T05:01:48;17.80;86.50
8132;DHT22;4107;49.212;9.198;2022-09-03T05:04:16;17.70;87.20
8132;DHT22;4107;49.212;9.198;2022-09-03T05:06:42;17.60;87.00
8132;DHT22;4107;49.212;9.198;2022-09-03T05:09:09;17.70;87.40
8132;DHT22;4107;49.212;9.198;2022-09-03T05:11:35;17.80;87.20
8132;DHT22;4107;49.212;9.198;2022-09-03T05:14:01;17.80;87.50
8132;DHT22;4107;49.212;9.198;2022-09-03T05:16:28;17.80;87.40
8132;DHT22;4107;49.212;9.198;2022-09-03T05:18:57;17.90;88.40
8132;DHT22;4107;49.212;9.198;2022-09-03T05:21:26;17.90;87.80
8132;DHT22;4107;49.212;9.198;2022-09-03T05:23:53;18.00;87.80
8132;DHT22;4107;49.212;9.198;2022-09-03T05:26:24;18.00;87.60
8132;DHT22;4107;49.212;9.198;2022-09-03T05:28:58;18.10;87.80
8132;DHT22;4107;49.212;9.198;2022-09-03T05:31:26;18.10;87.60
8132;DHT22;4107;49.212;9.198;2022-09-03T05:33:55;18.10;88.10
8132;DHT22;4107;49.212;9.198;2022-09-03T05:36:24;18.20;88.10
8132;DHT22;4107;49.212;9.198;2022-09-03T05:38:51;18.20;87.90
8132;DHT22;4107;49.212;9.198;2022-09-03T05:41:21;18.30;88.60
8132;DHT22;4107;49.212;9.198;2022-09-03T05:43:49;18.40;89.20
8132;DHT22;4107;49.212;9.198;2022-09-03T05:46:26;18.50;89.10
8132;DHT22;4107;49.212;9.198;2022-09-03T05:48:56;18.60;88.80
8132;DHT22;4107;49.212;9.198;2022-09-03T05:51:23;18.60;88.30
8132;DHT22;4107;49.212;9.198;2022-09-03T05:53:49;18.70;88.20
8132;DHT22;4107;49.212;9.198;2022-09-03T05:56:17;18.80;88.80
8132;DHT22;4107;49.212;9.198;2022-09-03T05:58:45;18.70;87.90
8132;DHT22;4107;49.212;9.198;2022-09-03T06:01:23;18.80;88.20
8132;DHT22;4107;49.212;9.198;2022-09-03T06:03:54;18.90;87.70
8132;DHT22;4107;49.212;9.198;2022-09-03T06:06:21;19.00;88.50
8132;DHT22;4107;49.212;9.198;2022-09-03T06:08:51;19.10;87.20
8132;DHT22;4107;49.212;9.198;2022-09-03T06:11:17;19.20;87.60
8132;DHT22;4107;49.212;9.198;2022-09-03T06:13:43;19.30;87.40
8132;DHT22;4107;49.212;9.198;2022-09-03T06:16:08;19.50;87.60
8132;DHT22;4107;49.212;9.198;2022-09-03T06:18:35;19.60;87.30
8132;DHT22;4107;49.212;9.198;2022-09-03T06:21:02;19.70;87.30
8132;DHT22;4107;49.212;9.198;2022-09-03T06:23:29;19.60;88.70
8132;DHT22;4107;49.212;9.198;2022-09-03T06:26:13;19.50;88.30
8132;DHT22;4107;49.212;9.198;2022-09-03T06:28:41;19.50;87.50
8132;DHT22;4107;49.212;9.198;2022-09-03T06:31:17;19.60;87.20
8132;DHT22;4107;49.212;9.198;2022-09-03T06:33:44;19.80;88.10
8132;DHT22;4107;49.212;9.198;2022-09-03T06:36:13;20.10;87.40
8132;DHT22;4107;49.212;9.198;2022-09-03T06:38:39;20.20;86.70
8132;DHT22;4107;49.212;9.198;2022-09-03T06:41:14;20.40;85.80
8132;DHT22;4107;49.212;9.198;2022-09-03T06:43:46;20.40;85.30
8132;DHT22;4107;49.212;9.198;2022-09-03T06:46:14;20.50;85.50
8132;DHT22;4107;49.212;9.198;2022-09-03T06:48:41;20.40;87.30
8132;DHT22;4107;49.212;9.198;2022-09-03T06:51:09;20.30;86.30
8132;DHT22;4107;49.212;9.198;2022-09-03T06:53:37;20.00;88.10
8132;DHT22;4107;49.212;9.198;2022-09-03T06:56:06;19.80;90.50
8132;DHT22;4107;49.212;9.198;2022-09-03T06:58:34;19.50;92.30
8132;DHT22;4107;49.212;9.198;2022-09-03T07:01:31;19.20;92.10
8132;DHT22;4107;49.212;9.198;2022-09-03T07:04:03;19.00;95.50
8132;DHT22;4107;49.212;9.198;2022-09-03T07:06:31;18.90;97.90
8132;DHT22;4107;49.212;9.198;2022-09-03T07:08:57;18.90;97.00
8132;DHT22;4107;49.212;9.198;2022-09-03T07:11:26;19.10;96.10
8132;DHT22;4107;49.212;9.198;2022-09-03T07:13:54;19.50;96.70
8132;DHT22;4107;49.212;9.198;2022-09-03T07:16:31;20.10;97.30
8132;DHT22;4107;49.212;9.198;2022-09-03T07:18:57;20.70;96.10
8132;DHT22;4107;49.212;9.198;2022-09-03T07:21:27;21.20;93.20
8132;DHT22;4107;49.212;9.198;2022-09-03T07:23:54;21.30;91.80
8132;DHT22;4107;49.212;9.198;2022-09-03T07:26:23;21.40;91.40
8132;DHT22;4107;49.212;9.198;2022-09-03T07:28:50;21.50;90.40
8132;DHT22;4107;49.212;9.198;2022-09-03T07:31:32;21.40;90.10
8132;DHT22;4107;49.212;9.198;2022-09-03T07:34:03;21.30;90.80
8132;DHT22;4107;49.212;9.198;2022-09-03T07:36:34;21.30;90.90
8132;DHT22;4107;49.212;9.198;2022-09-03T07:39:00;21.30;90.90
8132;DHT22;4107;49.212;9.198;2022-09-03T07:41:26;21.30;91.20
8132;DHT22;4107;49.212;9.198;2022-09-03T07:43:52;21.30;90.80
8132;DHT22;4107;49.212;9.198;2022-09-03T07:46:21;21.40;91.40
8132;DHT22;4107;49.212;9.198;2022-09-03T07:48:55;21.50;92.00
8132;DHT22;4107;49.212;9.198;2022-09-03T07:51:24;21.50;91.40
8132;DHT22;4107;49.212;9.198;2022-09-03T07:53:52;21.40;90.90
8132;DHT22;4107;49.212;9.198;2022-09-03T07:56:18;21.50;91.70
8132;DHT22;4107;49.212;9.198;2022-09-03T07:58:44;21.10;91.90
8132;DHT22;4107;49.212;9.198;2022-09-03T08:01:11;21.10;94.30
8132;DHT22;4107;49.212;9.198;2022-09-03T08:03:41;20.90;93.40
8132;DHT22;4107;49.212;9.198;2022-09-03T08:06:10;20.80;92.60
8132;DHT22;4107;49.212;9.198;2022-09-03T08:08:36;20.90;93.80
8132;DHT22;4107;49.212;9.198;2022-09-03T08:11:07;20.80;93.40
8132;DHT22;4107;49.212;9.198;2022-09-03T08:16:02;21.00;93.10
8132;DHT22;4107;49.212;9.198;2022-09-03T08:18:29;21.00;93.50
8132;DHT22;4107;49.212;9.198;2022-09-03T08:20:58;21.10;92.60
8132;DHT22;4107;49.212;9.198;2022-09-03T08:23:24;21.00;93.20
8132;DHT22;4107;49.212;9.198;2022-09-03T08:26:00;20.90;94.00
8132;DHT22;4107;49.212;9.198;2022-09-03T08:28:26;20.80;95.30
8132;DHT22;4107;49.212;9.198;2022-09-03T08:30:52;20.80;96.80
8132;DHT22;4107;49.212;9.198;2022-09-03T08:33:18;20.70;94.20
8132;DHT22;4107;49.212;9.198;2022-09-03T08:36:35;20.80;95.30
8132;DHT22;4107;49.212;9.198;2022-09-03T08:39:01;21.00;95.30
8132;DHT22;4107;49.212;9.198;2022-09-03T08:44:51;21.30;94.30
8132;DHT22;4107;49.212;9.198;2022-09-03T08:47:23;21.70;94.40
8132;DHT22;4107;49.212;9.198;2022-09-03T08:50:00;22.20;93.90
8132;DHT22;4107;49.212;9.198;2022-09-03T08:52:29;22.50;93.20
8132;DHT22;4107;49.212;9.198;2022-09-03T09:09:02;25.50;90.40
8132;DHT22;4107;49.212;9.198;2022-09-03T09:11:40;25.80;90.00
8132;DHT22;4107;49.212;9.198;2022-09-03T09:22:47;25.50;84.70
8132;DHT22;4107;49.212;9.198;2022-09-03T09:25:20;25.70;83.70
8132;DHT22;4107;49.212;9.198;2022-09-03T09:28:52;25.80;85.40
8132;DHT22;4107;49.212;9.198;2022-09-03T09:30:53;25.70;84.60
8132;DHT22;4107;49.212;9.198;2022-09-03T09:33:20;25.40;84.90
8132;DHT22;4107;49.212;9.198;2022-09-03T09:35:47;25.20;84.20
8132;DHT22;4107;49.212;9.198;2022-09-03T09:38:13;24.80;86.90
8132;DHT22;4107;49.212;9.198;2022-09-03T09:40:43;24.70;90.30
8132;DHT22;4107;49.212;9.198;2022-09-03T09:43:14;24.50;90.70
8132;DHT22;4107;49.212;9.198;2022-09-03T09:45:49;24.30;91.10
8132;DHT22;4107;49.212;9.198;2022-09-03T09:48:30;24.70;91.50
8132;DHT22;4107;49.212;9.198;2022-09-03T09:51:12;24.80;90.70
8132;DHT22;4107;49.212;9.198;2022-09-03T09:53:39;25.00;90.40
8132;DHT22;4107;49.212;9.198;2022-09-03T09:56:05;25.00;90.50
8132;DHT22;4107;49.212;9.198;2022-09-03T09:58:32;24.90;87.80
8132;DHT22;4107;49.212;9.198;2022-09-03T10:01:09;24.90;90.10
8132;DHT22;4107;49.212;9.198;2022-09-03T10:03:50;25.70;87.80
8132;DHT22;4107;49.212;9.198;2022-09-03T10:09:22;28.80;80.20
8132;DHT22;4107;49.212;9.198;2022-09-03T10:12:08;28.70;78.90
8132;DHT22;4107;49.212;9.198;2022-09-03T10:14:46;28.50;76.70
8132;DHT22;4107;49.212;9.198;2022-09-03T10:17:21;28.20;76.90
8132;DHT22;4107;49.212;9.198;2022-09-03T10:20:08;27.80;79.20
8132;DHT22;4107;49.212;9.198;2022-09-03T10:25:24;27.50;80.70
8132;DHT22;4107;49.212;9.198;2022-09-03T10:27:51;27.20;80.50
8132;DHT22;4107;49.212;9.198;2022-09-03T10:30:19;27.20;80.90
8132;DHT22;4107;49.212;9.198;2022-09-03T10:35:31;26.80;81.20
8132;DHT22;4107;49.212;9.198;2022-09-03T10:46:10;26.70;82.20
8132;DHT22;4107;49.212;9.198;2022-09-03T10:54:16;27.00;82.20
8132;DHT22;4107;49.212;9.198;2022-09-03T11:00:01;27.20;82.40
8132;DHT22;4107;49.212;9.198;2022-09-03T11:05:55;27.50;83.70
8132;DHT22;4107;49.212;9.198;2022-09-03T11:13:51;27.80;84.10
8132;DHT22;4107;49.212;9.198;2022-09-03T11:16:25;28.10;81.90
8132;DHT22;4107;49.212;9.198;2022-09-03T11:19:15;28.40;83.00
8132;DHT22;4107;49.212;9.198;2022-09-03T11:21:42;28.50;81.60
8132;DHT22;4107;49.212;9.198;2022-09-03T11:24:12;28.50;79.10
8132;DHT22;4107;49.212;9.198;2022-09-03T11:26:43;28.40;79.30
8132;DHT22;4107;49.212;9.198;2022-09-03T11:32:07;28.40;79.80
8132;DHT22;4107;49.212;9.198;2022-09-03T11:34:53;28.30;78.90
8132;DHT22;4107;49.212;9.198;2022-09-03T11:37:27;28.30;80.20
8132;DHT22;4107;49.212;9.198;2022-09-03T11:40:13;28.30;81.60
8132;DHT22;4107;49.212;9.198;2022-09-03T11:42:44;28.30;81.40
8132;DHT22;4107;49.212;9.198;2022-09-03T11:47:56;28.20;81.80
8132;DHT22;4107;49.212;9.198;2022-09-03T11:50:31;28.10;82.50
8132;DHT22;4107;49.212;9.198;2022-09-03T11:55:57;28.10;82.40
8132;DHT22;4107;49.212;9.198;2022-09-03T11:58:38;28.10;81.80
8132;DHT22;4107;49.212;9.198;2022-09-03T12:01:11;27.90;77.90
8132;DHT22;4107;49.212;9.198;2022-09-03T12:03:48;27.90;79.20
8132;DHT22;4107;49.212;9.198;2022-09-03T12:08:57;27.60;81.00
8132;DHT22;4107;49.212;9.198;2022-09-03T12:19:51;28.00;80.90
8132;DHT22;4107;49.212;9.198;2022-09-03T12:22:21;27.90;79.40
8132;DHT22;4107;49.212;9.198;2022-09-03T12:24:47;27.90;78.20
8132;DHT22;4107;49.212;9.198;2022-09-03T12:27:23;27.90;77.30
8132;DHT22;4107;49.212;9.198;2022-09-03T12:32:20;27.90;78.40
8132;DHT22;4107;49.212;9.198;2022-09-03T12:34:46;27.90;78.50
8132;DHT22;4107;49.212;9.198;2022-09-03T12:37:20;27.90;76.70
8132;DHT22;4107;49.212;9.198;2022-09-03T12:39:53;27.90;80.00
8132;DHT22;4107;49.212;9.198;2022-09-03T12:42:27;27.90;78.10
8132;DHT22;4107;49.212;9.198;2022-09-03T12:44:53;28.00;78.60
8132;DHT22;4107;49.212;9.198;2022-09-03T12:47:22;27.80;80.40
8132;DHT22;4107;49.212;9.198;2022-09-03T12:49:50;27.80;80.90
8132;DHT22;4107;49.212;9.198;2022-09-03T12:57:32;27.90;81.90
8132;DHT22;4107;49.212;9.198;2022-09-03T13:00:05;27.90;78.60
8132;DHT22;4107;49.212;9.198;2022-09-03T13:02:46;27.80;77.90
8132;DHT22;4107;49.212;9.198;2022-09-03T13:05:21;27.80;78.50
8132;DHT22;4107;49.212;9.198;2022-09-03T13:07:54;27.70;78.90
8132;DHT22;4107;49.212;9.198;2022-09-03T13:10:37;27.80;80.90
8132;DHT22;4107;49.212;9.198;2022-09-03T13:13:20;27.90;80.10
8132;DHT22;4107;49.212;9.198;2022-09-03T13:31:57;27.70;76.60
8132;DHT22;4107;49.212;9.198;2022-09-03T13:34:31;27.70;79.20
8132;DHT22;4107;49.212;9.198;2022-09-03T13:39:57;27.80;80.30
8132;DHT22;4107;49.212;9.198;2022-09-03T13:42:32;27.90;80.50
8132;DHT22;4107;49.212;9.198;2022-09-03T13:48:06;27.80;81.00
8132;DHT22;4107;49.212;9.198;2022-09-03T13:54:00;27.90;77.00
8132;DHT22;4107;49.212;9.198;2022-09-03T13:59:28;27.90;79.50
8132;DHT22;4107;49.212;9.198;2022-09-03T14:10:30;27.40;78.30
8132;DHT22;4107;49.212;9.198;2022-09-03T14:16:06;27.20;79.40
8132;DHT22;4107;49.212;9.198;2022-09-03T14:18:48;26.90;80.50
8132;DHT22;4107;49.212;9.198;2022-09-03T14:21:21;26.70;83.30
8132;DHT22;4107;49.212;9.198;2022-09-03T14:24:21;26.30;85.50
8132;DHT22;4107;49.212;9.198;2022-09-03T14:26:59;25.90;87.10
8132;DHT22;4107;49.212;9.198;2022-09-03T14:29:29;25.40;87.80
8132;DHT22;4107;49.212;9.198;2022-09-03T14:32:17;25.00;88.90
8132;DHT22;4107;49.212;9.198;2022-09-03T14:43:09;23.00;99.90
8132;DHT22;4107;49.212;9.198;2022-09-03T14:51:43;21.10;99.90
8132;DHT22;4107;49.212;9.198;2022-09-03T15:00:06;19.80;99.90
8132;DHT22;4107;49.212;9.198;2022-09-03T15:08:08;19.00;99.90
8132;DHT22;4107;49.212;9.198;2022-09-03T15:10:56;18.80;99.90
8132;DHT22;4107;49.212;9.198;2022-09-03T15:16:58;18.70;99.90
8132;DHT22;4107;49.212;9.198;2022-09-03T15:19:35;18.60;99.90
8132;DHT22;4107;49.212;9.198;2022-09-03T15:30:19;18.60;99.90
8132;DHT22;4107;49.212;9.198;2022-09-03T15:32:58;18.60;99.90
8132;DHT22;4107;49.212;9.198;2022-09-03T15:35:50;18.70;99.90
8132;DHT22;4107;49.212;9.198;2022-09-03T15:38:41;18.70;99.90
8132;DHT22;4107;49.212;9.198;2022-09-03T15:41:27;18.60;99.90
8132;DHT22;4107;49.212;9.198;2022-09-03T15:43:58;18.70;99.90
8132;DHT22;4107;49.212;9.198;2022-09-03T15:46:48;18.70;99.90
8132;DHT22;4107;49.212;9.198;2022-09-03T15:49:19;18.80;99.90
8132;DHT22;4107;49.212;9.198;2022-09-03T15:52:01;18.80;99.90
8132;DHT22;4107;49.212;9.198;2022-09-03T15:54:57;18.80;99.90
8132;DHT22;4107;49.212;9.198;2022-09-03T15:57:38;18.80;99.90
8132;DHT22;4107;49.212;9.198;2022-09-03T16:00:11;18.90;99.90
8132;DHT22;4107;49.212;9.198;2022-09-03T16:05:53;19.00;99.90
8132;DHT22;4107;49.212;9.198;2022-09-03T16:11:12;19.20;99.90
8132;DHT22;4107;49.212;9.198;2022-09-03T16:13:58;19.30;99.90
8132;DHT22;4107;49.212;9.198;2022-09-03T16:16:55;19.40;99.90
8132;DHT22;4107;49.212;9.198;2022-09-03T16:19:44;19.50;99.90
8132;DHT22;4107;49.212;9.198;2022-09-03T16:22:31;19.60;99.90
8132;DHT22;4107;49.212;9.198;2022-09-03T16:25:08;19.80;99.90
8132;DHT22;4107;49.212;9.198;2022-09-03T16:27:51;19.80;99.90
8132;DHT22;4107;49.212;9.198;2022-09-03T16:30:36;19.80;99.90
8132;DHT22;4107;49.212;9.198;2022-09-03T16:33:34;19.90;99.90
8132;DHT22;4107;49.212;9.198;2022-09-03T16:44:01;20.10;99.90
8132;DHT22;4107;49.212;9.198;2022-09-03T16:52:32;20.20;99.90
8132;DHT22;4107;49.212;9.198;2022-09-03T16:55:28;20.10;99.90
8132;DHT22;4107;49.212;9.198;2022-09-03T17:03:45;20.20;99.90
8132;DHT22;4107;49.212;9.198;2022-09-03T17:06:39;20.20;99.90
8132;DHT22;4107;49.212;9.198;2022-09-03T17:12:09;20.20;99.90
8132;DHT22;4107;49.212;9.198;2022-09-03T17:21:30;20.30;99.90
8132;DHT22;4107;49.212;9.198;2022-09-03T17:24:31;20.30;99.90
8132;DHT22;4107;49.212;9.198;2022-09-03T17:28:05;20.30;99.90
8132;DHT22;4107;49.212;9.198;2022-09-03T17:30:17;20.20;99.90
8132;DHT22;4107;49.212;9.198;2022-09-03T17:33:04;20.20;99.90
8132;DHT22;4107;49.212;9.198;2022-09-03T17:36:04;20.20;99.90
8132;DHT22;4107;49.212;9.198;2022-09-03T17:41:44;20.20;99.90
8132;DHT22;4107;49.212;9.198;2022-09-03T17:49:24;20.20;99.90
8132;DHT22;4107;49.212;9.198;2022-09-03T17:54:47;20.20;99.90
8132;DHT22;4107;49.212;9.198;2022-09-03T17:57:42;20.20;99.90
8132;DHT22;4107;49.212;9.198;2022-09-03T18:00:20;20.10;99.90
8132;DHT22;4107;49.212;9.198;2022-09-03T18:03:54;20.10;99.90
8132;DHT22;4107;49.212;9.198;2022-09-03T18:05:53;20.10;99.90
8132;DHT22;4107;49.212;9.198;2022-09-03T18:16:46;19.90;99.90
8132;DHT22;4107;49.212;9.198;2022-09-03T18:20:06;19.90;99.90
8132;DHT22;4107;49.212;9.198;2022-09-03T18:23:19;19.90;99.90
8132;DHT22;4107;49.212;9.198;2022-09-03T18:26:13;19.90;99.90
8132;DHT22;4107;49.212;9.198;2022-09-03T18:29:11;19.80;99.90
8132;DHT22;4107;49.212;9.198;2022-09-03T18:31:56;19.80;99.90
8132;DHT22;4107;49.212;9.198;2022-09-03T18:34:40;19.80;99.90
8132;DHT22;4107;49.212;9.198;2022-09-03T18:37:26;19.70;99.90
8132;DHT22;4107;49.212;9.198;2022-09-03T18:40:20;19.60;99.90
8132;DHT22;4107;49.212;9.198;2022-09-03T18:49:34;19.40;99.90
8132;DHT22;4107;49.212;9.198;2022-09-03T18:55:19;19.30;99.90
8132;DHT22;4107;49.212;9.198;2022-09-03T18:58:15;19.30;99.90
8132;DHT22;4107;49.212;9.198;2022-09-03T19:01:44;19.30;99.90
8132;DHT22;4107;49.212;9.198;2022-09-03T19:10:20;19.10;99.90
8132;DHT22;4107;49.212;9.198;2022-09-03T19:13:29;19.10;99.90
8132;DHT22;4107;49.212;9.198;2022-09-03T19:19:36;19.00;99.90
8132;DHT22;4107;49.212;9.198;2022-09-03T19:22:27;19.10;99.90
8132;DHT22;4107;49.212;9.198;2022-09-03T19:25:13;19.10;99.90
8132;DHT22;4107;49.212;9.198;2022-09-03T19:28:12;19.10;99.90
8132;DHT22;4107;49.212;9.198;2022-09-03T19:31:18;19.10;99.90
8132;DHT22;4107;49.212;9.198;2022-09-03T19:34:45;19.20;99.90
8132;DHT22;4107;49.212;9.198;2022-09-03T19:37:49;19.20;99.90
8132;DHT22;4107;49.212;9.198;2022-09-03T19:41:16;19.20;99.90
8132;DHT22;4107;49.212;9.198;2022-09-03T19:46:58;19.20;99.90
8132;DHT22;4107;49.212;9.198;2022-09-03T19:49:54;19.20;99.90
8132;DHT22;4107;49.212;9.198;2022-09-03T19:52:54;19.20;99.90
8132;DHT22;4107;49.212;9.198;2022-09-03T19:55:44;19.20;99.90
8132;DHT22;4107;49.212;9.198;2022-09-03T19:58:31;19.20;99.90
8132;DHT22;4107;49.212;9.198;2022-09-03T20:01:16;19.10;99.90
8132;DHT22;4107;49.212;9.198;2022-09-03T20:04:13;19.20;99.90
8132;DHT22;4107;49.212;9.198;2022-09-03T20:07:00;19.20;99.90
8132;DHT22;4107;49.212;9.198;2022-09-03T20:09:46;19.20;99.90
8132;DHT22;4107;49.212;9.198;2022-09-03T20:12:37;19.20;99.90
8132;DHT22;4107;49.212;9.198;2022-09-03T20:15:05;19.20;99.90
8132;DHT22;4107;49.212;9.198;2022-09-03T20:20:43;19.20;99.90
8132;DHT22;4107;49.212;9.198;2022-09-03T20:23:22;19.20;99.90
8132;DHT22;4107;49.212;9.198;2022-09-03T20:28:52;19.20;99.90
8132;DHT22;4107;49.212;9.198;2022-09-03T20:34:42;19.20;99.90
8132;DHT22;4107;49.212;9.198;2022-09-03T20:37:46;19.20;99.90
8132;DHT22;4107;49.212;9.198;2022-09-03T20:40:45;19.20;99.90
8132;DHT22;4107;49.212;9.198;2022-09-03T20:44:00;19.10;99.90
8132;DHT22;4107;49.212;9.198;2022-09-03T20:51:26;19.20;99.90
8132;DHT22;4107;49.212;9.198;2022-09-03T20:54:04;19.20;99.90
8132;DHT22;4107;49.212;9.198;2022-09-03T20:59:40;19.20;99.90
8132;DHT22;4107;49.212;9.198;2022-09-03T21:12:52;19.10;99.90
8132;DHT22;4107;49.212;9.198;2022-09-03T21:20:45;19.00;99.90
8132;DHT22;4107;49.212;9.198;2022-09-03T21:23:42;19.00;99.90
8132;DHT22;4107;49.212;9.198;2022-09-03T21:26:18;19.00;99.90
8132;DHT22;4107;49.212;9.198;2022-09-03T21:31:41;18.90;99.90
8132;DHT22;4107;49.212;9.198;2022-09-03T21:34:18;18.90;99.90
8132;DHT22;4107;49.212;9.198;2022-09-03T21:36:45;18.90;99.90
8132;DHT22;4107;49.212;9.198;2022-09-03T21:39:33;18.90;99.90
8132;DHT22;4107;49.212;9.198;2022-09-03T21:42:23;18.80;99.90
8132;DHT22;4107;49.212;9.198;2022-09-03T21:45:07;18.80;99.90
8132;DHT22;4107;49.212;9.198;2022-09-03T21:48:01;18.80;99.90
8132;DHT22;4107;49.212;9.198;2022-09-03T21:50:45;18.70;99.90
8132;DHT22;4107;49.212;9.198;2022-09-03T21:53:38;18.80;99.90
8132;DHT22;4107;49.212;9.198;2022-09-03T21:58:53;18.70;99.90
8132;DHT22;4107;49.212;9.198;2022-09-03T22:01:43;18.60;99.90
8132;DHT22;4107;49.212;9.198;2022-09-03T22:04:10;18.60;99.90
8132;DHT22;4107;49.212;9.198;2022-09-03T22:06:54;18.50;99.90
8132;DHT22;4107;49.212;9.198;2022-09-03T22:09:33;18.50;99.90
8132;DHT22;4107;49.212;9.198;2022-09-03T22:12:13;18.50;99.90
8132;DHT22;4107;49.212;9.198;2022-09-03T22:14:43;18.50;99.90
8132;DHT22;4107;49.212;9.198;2022-09-03T22:19:52;18.50;99.90
8132;DHT22;4107;49.212;9.198;2022-09-03T22:22:26;18.40;99.90
8132;DHT22;4107;49.212;9.198;2022-09-03T22:25:10;18.50;99.90
8132;DHT22;4107;49.212;9.198;2022-09-03T22:30:33;18.50;99.90
8132;DHT22;4107;49.212;9.198;2022-09-03T22:35:35;18.40;99.90
8132;DHT22;4107;49.212;9.198;2022-09-03T22:40:38;18.40;99.90
8132;DHT22;4107;49.212;9.198;2022-09-03T22:46:03;18.40;99.90